Sedgwick Reserve, California Weather observations

Data are for 10 minute period ending at time listed.
 Day   Time   Solar   Ave.   Ave.  Ave.  Vector  Max.   Baro.   Total    
  of    of     Rad.   Air    Rel.  Wind   Wind   Wind  Press.  Precip.   
Year   Day            Temp.  Hum.  Speed  Dir.   Gust                    
2026   (PST)  Kw/m2    F      %     mph   deg.    mph    mb.     in.     
-------------------------------------------------------------------------
 123    1:50   0.00   52.2    91    0.4   107     2.9   971.7    0.00 
 123    2:00   0.00   52.2    91    0.1   153     1.1   971.7    0.00 
 123    2:10   0.00   52.2    91    0.5    27     1.1   971.6    0.00 
 123    2:20   0.00   52.1    91    0.3    30     1.2   971.7    0.00 
 123    2:30   0.00   52.3    91    1.1    54     1.9   971.7    0.00 
 123    2:40   0.00   52.3    91    0.3   287     1.2   971.7    0.00 
 123    2:50   0.00   52.3    91    0.2   296     1.1   971.6    0.00 
 123    3:00   0.00   52.4    91    0.4   234     1.2   971.7    0.00 
 123    3:10   0.00   52.5    91    0.2   281     0.9   971.7    0.00 
 123    3:20   0.00   52.4    91    0.2   351     1.2   971.6    0.00 
 123    3:30   0.00   52.3    92    1.5    24     2.0   971.5    0.00 
 123    3:40   0.00   52.1    94    1.8    25     2.6   971.4    0.00 
 123    3:50   0.00   52.0    95    3.3    28     4.8   971.4    0.00 
 123    4:00   0.00   51.9    96    4.1    24     5.3   971.4    0.00 
 123    4:10   0.00   51.9    96    1.2    14     3.7   971.4    0.00 
 123    4:20   0.00   52.0    96    1.2    10     2.9   971.4    0.00 
 123    4:30   0.00   52.0    96    0.6   330     1.4   971.5    0.00 
 123    4:40   0.00   52.1    96    1.5   204     2.7   971.6    0.00 
 123    4:50   0.00   52.2    96    1.1   164     2.6   971.6    0.00 
 123    5:00   0.00   52.3    95    1.4   243     2.6   971.6    0.00 
 123    5:10   0.00   52.4    95    1.6   308     3.9   971.8    0.00 
 123    5:20   0.00   52.5    95    1.1    32     2.1   971.8    0.00 
 123    5:30   0.00   52.4    95    1.2    24     2.6   971.9    0.00 
 123    5:40   0.01   52.6    95    0.6    28     1.2   971.9    0.00 
 123    5:50   0.01   52.8    95    0.0     0     0.0   972.0    0.00 
 123    6:00   0.01   52.9    95    0.7    10     1.7   972.3    0.00 
 123    6:10   0.02   52.8    95    1.7   357     3.1   972.4    0.00 
 123    6:20   0.02   53.0    95    0.7    65     1.8   972.5    0.00 
 123    6:30   0.03   53.1    94    0.7    71     2.0   972.6    0.00 
 123    6:40   0.04   53.3    94    1.0    39     3.0   972.6    0.00 
 123    6:50   0.06   53.4    93    1.0    64     2.7   972.6    0.00 
 123    7:00   0.08   53.6    92    0.1    70     1.3   972.7    0.00 
 123    7:10   0.08   53.9    88    0.9   142     1.8   972.9    0.00 
 123    7:20   0.10   53.8    85    1.9   270     4.2   973.0    0.00 
 123    7:30   0.09   54.2    81    2.0   282     4.3   973.1    0.00 
 123    7:40   0.11   54.8    79    1.1   244     2.3   973.1    0.00 
 123    7:50   0.10   55.0    78    1.8   257     4.0   973.1    0.00 
 123    8:00   0.10   54.6    82    3.1   221     5.2   973.2    0.00 
 123    8:10   0.14   54.4    84    4.3   258     6.8   973.3    0.00 
 123    8:20   0.12   54.4    84    4.2   269     7.6   973.4    0.00 
 123    8:30   0.10   54.8    82    4.1   275     7.2   973.5    0.00 
 123    8:40   0.08   54.2    83    4.6   244     7.5   973.6    0.00 
 123    8:50   0.13   54.2    84    4.7   259     6.7   973.6    0.00 
 123    9:00   0.12   54.5    84    4.2   262     7.7   973.6    0.00 
 123    9:10   0.09   54.4    83    6.3   302     9.2   973.7    0.00 
 123    9:20   0.10   54.2    83    4.6   291     7.3   973.8    0.00 
 123    9:30   0.13   54.4    82    5.6   281     8.0   973.9    0.00 
 123    9:40   0.11   54.6    80    5.4   282     9.0   973.9    0.00 
 123    9:50   0.08   54.8    80    2.7   294     6.0   973.9    0.00 
 123   10:00   0.08   55.0    80    2.2   290     5.5   974.0    0.00 
 123   10:10   0.10   55.0    81    5.3   290     8.8   974.0    0.00 
 123   10:20   0.12   54.9    81    4.5   290     7.6   974.1    0.00 
 123   10:30   0.20   55.4    79    4.7   290     7.6   974.0    0.00 
 123   10:40   0.19   55.4    79    5.0   288     8.0   974.0    0.00 
 123   10:50   0.14   55.5    78    4.6   301     8.9   973.9    0.00 
 123   11:00   0.15   55.6    78    4.7   276     7.5   973.9    0.00 
 123   11:10   0.17   55.8    78    4.1   294     7.5   973.9    0.00 
 123   11:20   0.17   56.3    77    3.3   299     6.7   973.9    0.00 
 123   11:30   0.18   56.5    76    5.2   301     8.8   973.8    0.00 
 123   11:40   0.30   56.4    76    4.7   295     7.2   973.6    0.00 
 123   11:50   0.29   57.4    74    4.5   298     9.4   973.7    0.00 
 123   12:00   0.27   58.0    72    3.0   283     6.0   973.7    0.00 
 123   12:10   0.29   58.0    72    3.2     9     6.8   973.5    0.00 
 123   12:20   0.34   59.1    70    2.8   350     7.1   973.5    0.00 
 123   12:30   0.34   59.9    69    4.3    13     9.5   973.4    0.00 
 123   12:40   0.30   59.5    69    4.0    15     8.5   973.4    0.00 
 123   12:50   0.36   59.7    69    3.6    33     8.8   973.3    0.00 
 123   13:00   0.38   60.4    67    4.1    26    10.4   973.2    0.00 
 123   13:10   0.41   61.2    66    3.0    29     9.4   973.1    0.00 
 123   13:20   0.41   61.4    65    4.5    12     8.8   973.0    0.00 
 123   13:30   0.33   61.6    65    2.4    61     6.0   972.9    0.00 
 123   13:40   0.28   62.5    63    2.2    47     8.7   972.8    0.00 
 123   13:50   0.27   61.7    64    3.5   312     7.3   972.8    0.00 
 123   14:00   0.23   61.2    64    2.0   309     5.6   972.8    0.00 
 123   14:10   0.22   61.8    63    1.5   296     3.5   972.8    0.00 
 123   14:20   0.24   62.1    63    3.3    20     6.4   972.7    0.00 
 123   14:30   0.21   61.9    64    3.1    29     6.8   972.5    0.00 
 123   14:40   0.21   62.0    63    2.8    30     5.2   972.4    0.00 
 123   14:50   0.24   63.3    61    1.4    23     5.0   972.3    0.00 
 123   15:00   0.25   63.3    59    3.7   231     8.1   972.2    0.00 
 123   15:10   0.21   62.6    60    5.1   198     9.1   972.0    0.00 
 123   15:20   0.18   62.3    60    5.3   235     9.3   972.0    0.00 
 123   15:30   0.13   62.2    58    4.8   249     8.8   971.9    0.00 
 123   15:40   0.10   62.1    58    5.3   277    12.0   972.0    0.00 
 123   15:50   0.10   61.2    58    9.3   279    14.2   972.1    0.00 
 123   16:00   0.11   60.6    59    9.6   277    14.8   972.3    0.00 
 123   16:10   0.10   60.6    58    8.4   288    13.7   972.4    0.00 
 123   16:20   0.09   60.6    58    7.1   290    12.4   972.4    0.00 
 123   16:30   0.09   60.7    58    5.5   302    11.0   972.3    0.00 
 123   16:40   0.08   60.5    57    6.9   303    13.5   972.4    0.00 
 123   16:50   0.08   59.8    58    7.2   292    12.7   972.7    0.00 
 123   17:00   0.08   59.1    58    9.4   282    16.4   972.7    0.00 
 123   17:10   0.08   59.0    58    9.5   288    15.0   972.8    0.00 
 123   17:20   0.08   59.1    59    6.8   307    11.1   972.8    0.00 
 123   17:30   0.06   58.8    59    9.8   320    15.6   972.8    0.00 
 123   17:40   0.06   58.3    60    7.8   328    14.0   972.8    0.00 
 123   17:50   0.06   58.1    60    8.1   320    13.0   972.9    0.00 
 123   18:00   0.05   57.9    61    7.0   324    13.7   972.9    0.00 
 123   18:10   0.03   57.6    62    6.8   330    12.9   972.9    0.00 
 123   18:20   0.02   57.1    62    8.0   317    13.8   973.3    0.00 
 123   18:30   0.02   56.8    63    7.2   331    14.2   973.4    0.00 
 123   18:40   0.01   56.6    63    4.4   337    10.1   973.3    0.00 
 123   18:50   0.00   56.1    64    6.3   330    13.2   973.3    0.00 
 123   19:00   0.00   55.9    65    6.8   326    13.3   973.4    0.00 
 123   19:10   0.00   55.7    66    8.1   319    12.7   973.5    0.00 
 123   19:20   0.00   55.4    68    5.7   332    10.7   973.6    0.00 
 123   19:30   0.00   55.2    70    6.3   339    10.6   973.7    0.00 
 123   19:40   0.00   54.9    71    5.3   334     9.7   973.6    0.00 
 123   19:50   0.00   54.6    72    4.5   316     8.8   973.7    0.00 
 123   20:00   0.00   54.3    73    5.0   311     8.3   973.9    0.00 
 123   20:10   0.00   54.2    74    3.6   314     7.8   974.0    0.00 
 123   20:20   0.00   54.1    74    2.6   290     6.4   974.2    0.00 
 123   20:30   0.00   53.9    76    4.4   266     7.5   974.4    0.00 
 123   20:40   0.00   53.8    76    6.0   274     9.9   974.6    0.00 
 123   20:50   0.00   53.7    77    7.7   284    13.1   974.7    0.00 
 123   21:00   0.00   53.4    78    6.9   283     9.6   974.7    0.00 
 123   21:10   0.00   53.3    79    5.9   285    10.8   974.7    0.00 
 123   21:20   0.00   53.2    78    5.5   285     8.3   974.8    0.00 
 123   21:30   0.00   53.2    78    4.5   310     6.8   974.7    0.00 
 123   21:40   0.00   53.2    76    3.9   325     6.8   974.6    0.00 
 123   21:50   0.00   53.0    75    3.4   322     6.7   974.5    0.00 
 123   22:00   0.00   52.8    75    0.3     8     1.9   974.6    0.00 
 123   22:10   0.00   52.2    77    1.2   209     2.0   974.6    0.00 
 123   22:20   0.00   51.8    78    1.4   175     3.9   974.7    0.00 
 123   22:30   0.00   50.7    81    2.2   143     3.8   974.8    0.00 
 123   22:40   0.00   50.1    82    1.0   136     2.1   974.8    0.00 
 123   22:50   0.00   49.4    84    1.2   281     3.4   975.1    0.00 
 123   23:00   0.00   48.7    85    0.7    13     1.5   975.0    0.00 
 123   23:10   0.00   47.4    87    3.5     9     5.4   975.0    0.00 
 123   23:20   0.00   46.0    88    4.2     6     6.3   974.9    0.00 
 123   23:30   0.00   45.8    90    1.4   330     3.1   975.0    0.00 
 123   23:40   0.00   45.6    89    1.8   278     3.5   974.9    0.00 
 123   23:50   0.00   45.0    90    2.7   279     4.3   974.8    0.00 
 124    0:00   0.00   44.2    92    2.3    15     3.3   974.9    0.00 
 124    0:10   0.00   43.8    92    2.7    19     4.3   975.1    0.00 
 124    0:20   0.00   43.0    93    3.5     2     5.7   975.1    0.00 
 124    0:30   0.00   42.5    94    4.7    14     6.7   974.8    0.00 
 124    0:40   0.00   42.4    95    3.9    10     6.9   974.7    0.00 
 124    0:50   0.00   42.6    95    2.3   346     4.7   974.5    0.00 
 124    1:00   0.00   43.1    95    2.5   277     3.7   974.5    0.00 
 124    1:10   0.00   43.2    95    0.8   351     2.3   974.2    0.00 
 124    1:20   0.00   42.7    95    0.5     1     1.3   974.1    0.00 
 124    1:30   0.00   42.4    95    1.3   344     3.1   974.1    0.00 
 124    1:40   0.00   41.2    96    5.9    11     8.1   974.2    0.00 

Return to Sedgwick Reserve graphs page.


Western Regional Climate Center,wrcc@dri.edu